Time;durP1;ratioP1;P1;durP2;ratioP2;P2;SDS_P1;SDS_P2;PMS_P1;PMS_P2;Temp;Humidity;BMP_temperature;BMP_pressure;BME280_temperature;BME280_humidity;BME280_pressure;Samples;Min_cycle;Max_cycle;Signal;HPM_P1;HPM_P2
2022/04/10 00:00:45;;;;;;;0.63;0.63;;;;;;;;;;4950165;29;20206;-60
2022/04/10 00:03:12;;;;;;;2.10;0.90;;;;;;;;;;4931419;29;20204;-60
2022/04/10 00:05:39;;;;;;;1.03;0.90;;;;;;;;;;4940887;29;20677;-60
2022/04/10 00:08:06;;;;;;;0.70;0.70;;;;;;;;;;4948656;29;20228;-60
2022/04/10 00:10:33;;;;;;;1.00;1.00;;;;;;;;;;4950317;29;20274;-60
2022/04/10 00:13:00;;;;;;;2.97;0.80;;;;;;;;;;4950101;29;20211;-60
2022/04/10 00:15:27;;;;;;;2.80;1.00;;;;;;;;;;4950329;29;20219;-60
2022/04/10 00:17:56;;;;;;;3.97;0.93;;;;;;;;;;4946849;29;20203;-60
2022/04/10 00:20:23;;;;;;;2.93;1.07;;;;;;;;;;4949933;29;21041;-60
2022/04/10 00:22:50;;;;;;;0.87;0.87;;;;;;;;;;4948076;29;20211;-60
2022/04/10 00:25:18;;;;;;;1.80;0.80;;;;;;;;;;4950005;29;20800;-60
2022/04/10 00:27:45;;;;;;;1.30;1.20;;;;;;;;;;4945106;28;20227;-61
2022/04/10 00:30:13;;;;;;;0.93;0.93;;;;;;;;;;4948967;29;20686;-60
2022/04/10 00:32:40;;;;;;;0.77;0.77;;;;;;;;;;4949755;29;20219;-60
2022/04/10 00:35:10;;;;;;;1.03;0.83;;;;;;;;;;4949802;29;20210;-60
2022/04/10 00:37:37;;;;;;;2.70;0.63;;;;;;;;;;4949525;29;20308;-60
2022/04/10 00:40:05;;;;;;;0.80;0.80;;;;;;;;;;4930389;29;20222;-59
2022/04/10 00:42:32;;;;;;;1.00;1.00;;;;;;;;;;4948314;29;20234;-60
2022/04/10 00:44:59;;;;;;;1.37;1.00;;;;;;;;;;4949589;29;20670;-60
2022/04/10 00:47:27;;;;;;;3.80;0.87;;;;;;;;;;4948238;29;20211;-60
2022/04/10 00:49:54;;;;;;;1.50;1.00;;;;;;;;;;4948919;29;20435;-60
2022/04/10 00:52:22;;;;;;;2.50;1.23;;;;;;;;;;4937846;29;20687;-60
2022/04/10 00:54:49;;;;;;;0.90;0.90;;;;;;;;;;4930199;29;20215;-60
2022/04/10 00:57:16;;;;;;;1.20;1.10;;;;;;;;;;4930438;29;20220;-60
2022/04/10 00:59:43;;;;;;;1.43;1.33;;;;;;;;;;4947392;28;20726;-60
2022/04/10 01:02:11;;;;;;;2.53;1.20;;;;;;;;;;4945661;29;20355;-60
2022/04/10 01:04:38;;;;;;;1.80;1.03;;;;;;;;;;4949197;29;20234;-60
2022/04/10 01:07:05;;;;;;;1.07;0.90;;;;;;;;;;4947361;29;20574;-60
2022/04/10 01:09:34;;;;;;;2.07;1.03;;;;;;;;;;4948182;29;20257;-60
2022/04/10 01:12:02;;;;;;;2.47;2.27;;;;;;;;;;4940522;29;20219;-60
2022/04/10 01:14:29;;;;;;;1.00;1.00;;;;;;;;;;4948989;29;20277;-60
2022/04/10 01:16:56;;;;;;;1.47;1.37;;;;;;;;;;4941419;29;20215;-60
2022/04/10 01:19:23;;;;;;;0.73;0.63;;;;;;;;;;4931304;29;20645;-60
2022/04/10 01:21:53;;;;;;;1.37;1.27;;;;;;;;;;4934993;29;20229;-60
2022/04/10 01:24:21;;;;;;;1.17;1.10;;;;;;;;;;4947159;29;20245;-60
2022/04/10 01:26:48;;;;;;;1.37;1.33;;;;;;;;;;4948422;29;20225;-60
2022/04/10 01:29:15;;;;;;;1.27;1.20;;;;;;;;;;4946933;29;20253;-59
2022/04/10 01:31:44;;;;;;;4.53;1.40;;;;;;;;;;4948974;29;20225;-60
2022/04/10 01:34:13;;;;;;;1.60;0.90;;;;;;;;;;4948043;29;20219;-60
2022/04/10 01:36:40;;;;;;;0.93;0.93;;;;;;;;;;4948122;29;20237;-61
2022/04/10 01:39:08;;;;;;;3.10;1.33;;;;;;;;;;4948053;29;20210;-60
2022/04/10 01:41:37;;;;;;;0.83;0.83;;;;;;;;;;4946944;29;20222;-61
2022/04/10 01:44:05;;;;;;;1.53;1.37;;;;;;;;;;4946656;29;20224;-60
2022/04/10 01:46:33;;;;;;;1.53;1.00;;;;;;;;;;4948469;29;20225;-61
2022/04/10 01:49:00;;;;;;;1.37;1.13;;;;;;;;;;4940709;28;20253;-59
2022/04/10 01:51:27;;;;;;;1.27;1.27;;;;;;;;;;4933161;29;20219;-60
2022/04/10 01:53:55;;;;;;;0.70;0.70;;;;;;;;;;4933544;29;20218;-59
2022/04/10 01:56:22;;;;;;;0.80;0.80;;;;;;;;;;4949164;29;20362;-60
2022/04/10 01:58:52;;;;;;;0.93;0.93;;;;;;;;;;4951081;29;20213;-59
2022/04/10 02:01:19;;;;;;;2.53;1.20;;;;;;;;;;4948698;29;20221;-59
2022/04/10 02:03:47;;;;;;;0.80;0.80;;;;;;;;;;4950932;29;20636;-59
2022/04/10 02:06:14;;;;;;;1.40;1.20;;;;;;;;;;4951686;29;20372;-59
2022/04/10 02:08:42;;;;;;;2.87;0.90;;;;;;;;;;4951513;29;20229;-59
2022/04/10 02:11:12;;;;;;;1.23;1.23;;;;;;;;;;4951624;28;20309;-59
2022/04/10 02:13:39;;;;;;;1.10;1.10;;;;;;;;;;4949899;29;20264;-59
2022/04/10 02:16:08;;;;;;;1.43;0.90;;;;;;;;;;4950576;29;20209;-59
2022/04/10 02:18:35;;;;;;;1.30;1.23;;;;;;;;;;4951559;29;20201;-59
2022/04/10 02:21:02;;;;;;;5.70;1.47;;;;;;;;;;4951944;29;20216;-60
2022/04/10 02:23:29;;;;;;;1.97;1.43;;;;;;;;;;4951642;29;20216;-59
2022/04/10 02:25:57;;;;;;;1.10;1.10;;;;;;;;;;4951776;29;20232;-59
2022/04/10 02:28:24;;;;;;;1.17;1.10;;;;;;;;;;4950397;29;20332;-59
2022/04/10 02:30:51;;;;;;;1.23;1.13;;;;;;;;;;4949436;29;20217;-59
2022/04/10 02:33:19;;;;;;;4.27;1.17;;;;;;;;;;4948614;29;20211;-59
2022/04/10 02:35:46;;;;;;;1.43;1.27;;;;;;;;;;4950948;29;20263;-60
2022/04/10 02:38:16;;;;;;;1.00;1.00;;;;;;;;;;4950771;28;20247;-60
2022/04/10 02:40:43;;;;;;;1.40;1.40;;;;;;;;;;4951330;29;20655;-60
2022/04/10 02:43:11;;;;;;;1.17;1.13;;;;;;;;;;4950262;29;20212;-60
2022/04/10 02:45:38;;;;;;;1.50;1.40;;;;;;;;;;4946654;29;20295;-60
2022/04/10 02:48:05;;;;;;;2.27;1.47;;;;;;;;;;4950737;29;20218;-60
2022/04/10 02:50:34;;;;;;;2.00;1.10;;;;;;;;;;4946803;29;20207;-59
2022/04/10 02:53:01;;;;;;;1.63;1.00;;;;;;;;;;4951155;29;20233;-60
2022/04/10 02:55:28;;;;;;;5.40;1.10;;;;;;;;;;4948838;29;20203;-60
2022/04/10 02:57:55;;;;;;;1.20;1.20;;;;;;;;;;4951203;29;20618;-60
2022/04/10 03:00:22;;;;;;;1.20;1.10;;;;;;;;;;4948839;29;20213;-59
2022/04/10 03:02:49;;;;;;;1.30;1.20;;;;;;;;;;4950504;29;20242;-60
2022/04/10 03:05:16;;;;;;;2.83;0.93;;;;;;;;;;4946140;29;20634;-60
2022/04/10 03:07:45;;;;;;;1.73;0.97;;;;;;;;;;4951174;29;20203;-59
2022/04/10 03:10:12;;;;;;;1.20;1.13;;;;;;;;;;4950549;29;20246;-60
2022/04/10 03:12:39;;;;;;;0.80;0.80;;;;;;;;;;4946218;29;20234;-60
2022/04/10 03:15:07;;;;;;;1.43;0.90;;;;;;;;;;4946145;29;20215;-59
2022/04/10 03:17:34;;;;;;;1.73;1.27;;;;;;;;;;4951102;29;20207;-60
2022/04/10 03:20:01;;;;;;;1.93;1.23;;;;;;;;;;4950236;29;20214;-60
2022/04/10 03:22:28;;;;;;;1.77;1.27;;;;;;;;;;4948503;29;20211;-60
2022/04/10 03:24:56;;;;;;;0.90;0.90;;;;;;;;;;4945150;28;20553;-60
2022/04/10 03:27:23;;;;;;;1.87;1.20;;;;;;;;;;4951213;29;20211;-59
2022/04/10 03:29:50;;;;;;;1.50;1.40;;;;;;;;;;4949446;29;20247;-59
2022/04/10 03:32:17;;;;;;;1.37;1.33;;;;;;;;;;4947456;29;20219;-60
2022/04/10 03:34:44;;;;;;;1.13;1.13;;;;;;;;;;4950228;29;20582;-60
2022/04/10 03:37:11;;;;;;;1.00;1.00;;;;;;;;;;4949207;29;20210;-60
2022/04/10 03:39:39;;;;;;;1.27;1.27;;;;;;;;;;4948726;29;20203;-60
2022/04/10 03:42:08;;;;;;;1.73;1.63;;;;;;;;;;4949292;29;20591;-60
2022/04/10 03:44:35;;;;;;;1.37;1.07;;;;;;;;;;4950338;29;20595;-60
2022/04/10 03:47:02;;;;;;;1.33;1.00;;;;;;;;;;4950470;29;20203;-60
2022/04/10 03:49:29;;;;;;;1.40;1.30;;;;;;;;;;4948592;29;20238;-60
2022/04/10 03:51:56;;;;;;;1.20;1.10;;;;;;;;;;4950403;29;20211;-60
2022/04/10 03:54:23;;;;;;;1.53;1.37;;;;;;;;;;4948948;29;20215;-60
2022/04/10 03:56:50;;;;;;;1.27;1.23;;;;;;;;;;4950565;29;20212;-60
2022/04/10 03:59:19;;;;;;;1.27;1.17;;;;;;;;;;4947214;29;20207;-60
2022/04/10 04:01:46;;;;;;;1.00;1.00;;;;;;;;;;4949090;29;20203;-60
2022/04/10 04:04:13;;;;;;;1.90;1.47;;;;;;;;;;4950687;29;20215;-60
2022/04/10 04:06:40;;;;;;;1.30;1.20;;;;;;;;;;4947749;29;20741;-60
2022/04/10 04:09:07;;;;;;;2.30;1.07;;;;;;;;;;4949446;29;20472;-60
2022/04/10 04:11:34;;;;;;;1.00;1.00;;;;;;;;;;4947738;29;20682;-60
2022/04/10 04:14:01;;;;;;;1.10;1.10;;;;;;;;;;4949334;29;20292;-60
2022/04/10 04:16:29;;;;;;;1.70;1.60;;;;;;;;;;4947387;29;20211;-60
2022/04/10 04:18:56;;;;;;;1.50;1.40;;;;;;;;;;4949596;29;20206;-60
2022/04/10 04:21:23;;;;;;;1.33;1.23;;;;;;;;;;4947525;29;20208;-60
2022/04/10 04:23:51;;;;;;;1.80;1.37;;;;;;;;;;4949479;29;20265;-60
2022/04/10 04:26:18;;;;;;;1.13;1.13;;;;;;;;;;4945986;29;20234;-60
2022/04/10 04:28:45;;;;;;;4.13;0.80;;;;;;;;;;4930934;29;20255;-61
2022/04/10 04:31:12;;;;;;;1.60;1.50;;;;;;;;;;4941807;29;20670;-61
2022/04/10 04:33:40;;;;;;;1.17;1.10;;;;;;;;;;4930864;29;20216;-61
2022/04/10 04:36:07;;;;;;;1.20;1.20;;;;;;;;;;4933573;29;20215;-60
2022/04/10 04:38:34;;;;;;;4.70;2.30;;;;;;;;;;4934586;29;20279;-60
2022/04/10 04:41:01;;;;;;;1.70;1.50;;;;;;;;;;4944107;29;20225;-60
2022/04/10 04:43:28;;;;;;;1.10;1.10;;;;;;;;;;4953751;29;20215;-60
2022/04/10 04:45:55;;;;;;;2.07;1.03;;;;;;;;;;4943080;29;20623;-60
2022/04/10 04:48:22;;;;;;;1.60;1.50;;;;;;;;;;4935440;29;20211;-60
2022/04/10 04:50:51;;;;;;;1.03;1.03;;;;;;;;;;4939418;29;20264;-60
2022/04/10 04:53:18;;;;;;;1.10;1.10;;;;;;;;;;4953369;29;20704;-60
2022/04/10 04:55:45;;;;;;;1.57;1.47;;;;;;;;;;4953214;29;20207;-60
2022/04/10 04:58:12;;;;;;;1.13;1.13;;;;;;;;;;4952794;29;20229;-60
2022/04/10 05:00:39;;;;;;;1.33;1.23;;;;;;;;;;4951695;29;20251;-60
2022/04/10 05:03:06;;;;;;;1.40;1.40;;;;;;;;;;4934122;29;20216;-60
2022/04/10 05:05:33;;;;;;;1.37;1.27;;;;;;;;;;4949915;29;20215;-60
2022/04/10 05:08:03;;;;;;;0.80;0.77;;;;;;;;;;4944472;29;20244;-60
2022/04/10 05:10:30;;;;;;;1.43;1.43;;;;;;;;;;4936770;29;20234;-60
2022/04/10 05:12:57;;;;;;;1.50;1.40;;;;;;;;;;4950565;29;20211;-60
2022/04/10 05:15:24;;;;;;;2.40;1.20;;;;;;;;;;4952032;29;20745;-60
2022/04/10 05:17:51;;;;;;;3.37;1.53;;;;;;;;;;4952788;29;20248;-60
2022/04/10 05:20:19;;;;;;;1.23;1.17;;;;;;;;;;4951025;29;20210;-60
2022/04/10 05:22:46;;;;;;;1.10;1.00;;;;;;;;;;4946265;29;20576;-60
2022/04/10 05:25:15;;;;;;;1.37;1.37;;;;;;;;;;4952111;29;20238;-60
2022/04/10 05:27:42;;;;;;;1.73;1.63;;;;;;;;;;4952750;29;20226;-60
2022/04/10 05:30:10;;;;;;;1.47;1.37;;;;;;;;;;4952200;29;20272;-60
2022/04/10 05:32:41;;;;;;;2.60;1.80;;;;;;;;;;4943343;29;20211;-60
2022/04/10 05:35:09;;;;;;;1.57;1.53;;;;;;;;;;4946865;29;20202;-60
2022/04/10 05:37:36;;;;;;;1.50;1.50;;;;;;;;;;4933612;29;20256;-60
2022/04/10 05:40:03;;;;;;;2.13;2.03;;;;;;;;;;4933432;29;20209;-60
2022/04/10 05:42:31;;;;;;;4.40;1.90;;;;;;;;;;4938673;29;20336;-61
2022/04/10 05:45:01;;;;;;;2.73;2.10;;;;;;;;;;4953119;29;20628;-60
2022/04/10 05:47:28;;;;;;;2.77;1.53;;;;;;;;;;4952357;28;20229;-60
2022/04/10 05:49:55;;;;;;;2.40;1.80;;;;;;;;;;4940078;29;20727;-60
2022/04/10 05:52:22;;;;;;;2.30;2.10;;;;;;;;;;4947934;29;20221;-60
2022/04/10 05:54:49;;;;;;;1.57;1.10;;;;;;;;;;4950354;29;20214;-60
2022/04/10 05:57:17;;;;;;;1.53;1.50;;;;;;;;;;4952729;29;20217;-60
2022/04/10 05:59:45;;;;;;;2.03;1.83;;;;;;;;;;4952706;29;20202;-60
2022/04/10 06:02:12;;;;;;;2.93;2.27;;;;;;;;;;4940264;29;20246;-59
2022/04/10 06:04:39;;;;;;;2.07;1.93;;;;;;;;;;4940107;29;20206;-60
2022/04/10 06:07:06;;;;;;;4.47;1.63;;;;;;;;;;4952560;29;20219;-60
2022/04/10 06:09:33;;;;;;;3.00;2.07;;;;;;;;;;4951930;29;20229;-60
2022/04/10 06:12:00;;;;;;;1.53;1.43;;;;;;;;;;4952607;29;20225;-60
2022/04/10 06:14:27;;;;;;;2.13;1.87;;;;;;;;;;4943279;29;20220;-59
2022/04/10 06:16:56;;;;;;;2.23;1.80;;;;;;;;;;4952464;29;20920;-59
2022/04/10 06:19:23;;;;;;;2.03;1.90;;;;;;;;;;4952298;29;20279;-59
2022/04/10 06:21:50;;;;;;;1.53;1.53;;;;;;;;;;4952221;29;20220;-60
2022/04/10 06:24:17;;;;;;;1.47;1.37;;;;;;;;;;4938139;29;20217;-60
2022/04/10 06:26:48;;;;;;;6.77;2.20;;;;;;;;;;4952548;29;20590;-60
2022/04/10 06:29:15;;;;;;;2.37;2.27;;;;;;;;;;4952070;29;20328;-60
2022/04/10 06:31:43;;;;;;;1.40;1.40;;;;;;;;;;4951983;29;20220;-60
2022/04/10 06:34:11;;;;;;;2.40;1.90;;;;;;;;;;4947455;29;20220;-60
2022/04/10 06:36:38;;;;;;;2.10;2.00;;;;;;;;;;4952136;29;20329;-60
2022/04/10 06:39:06;;;;;;;4.57;1.73;;;;;;;;;;4950918;29;20207;-60
2022/04/10 06:41:33;;;;;;;1.93;1.83;;;;;;;;;;4951097;29;20612;-60
2022/04/10 06:44:00;;;;;;;2.80;2.27;;;;;;;;;;4943407;28;20219;-60
2022/04/10 06:46:27;;;;;;;3.70;2.53;;;;;;;;;;4952013;29;20213;-60
2022/04/10 06:48:54;;;;;;;2.93;2.10;;;;;;;;;;4935660;29;20592;-60
2022/04/10 06:51:22;;;;;;;4.23;2.23;;;;;;;;;;4933009;29;20289;-60
2022/04/10 06:53:50;;;;;;;1.93;1.77;;;;;;;;;;4938069;29;20285;-60
2022/04/10 06:56:17;;;;;;;2.40;2.20;;;;;;;;;;4951744;29;20259;-60
2022/04/10 06:58:44;;;;;;;2.50;2.27;;;;;;;;;;4951648;28;20216;-60
2022/04/10 07:01:11;;;;;;;6.63;2.23;;;;;;;;;;4944969;29;20689;-60
2022/04/10 07:03:39;;;;;;;2.23;2.13;;;;;;;;;;4933047;29;20222;-59
2022/04/10 07:06:06;;;;;;;2.00;1.80;;;;;;;;;;4933512;29;20235;-60
2022/04/10 07:08:35;;;;;;;2.63;2.43;;;;;;;;;;4941317;29;20221;-60
2022/04/10 07:11:02;;;;;;;4.07;2.30;;;;;;;;;;4946269;29;20250;-60
2022/04/10 07:13:29;;;;;;;3.27;2.20;;;;;;;;;;4948028;29;20238;-60
2022/04/10 07:15:57;;;;;;;2.20;2.10;;;;;;;;;;4949433;29;20582;-60
2022/04/10 07:18:24;;;;;;;2.23;2.03;;;;;;;;;;4938816;29;20424;-60
2022/04/10 07:20:51;;;;;;;2.80;2.60;;;;;;;;;;4951143;29;20214;-60
2022/04/10 07:26:09;;;;;;;2.27;2.13;;;;;;;;;;4932388;29;20225;-59
2022/04/10 07:28:37;;;;;;;1.57;1.47;;;;;;;;;;4945527;29;20235;-60
2022/04/10 07:31:05;;;;;;;2.40;1.57;;;;;;;;;;4951360;29;20251;-60
2022/04/10 07:33:32;;;;;;;2.20;1.97;;;;;;;;;;4932696;29;20737;-60
2022/04/10 07:35:59;;;;;;;3.20;1.87;;;;;;;;;;4944567;29;20211;-61
2022/04/10 07:38:26;;;;;;;2.57;2.23;;;;;;;;;;4950261;29;20211;-60
2022/04/10 07:40:53;;;;;;;2.10;2.00;;;;;;;;;;4932052;29;20741;-60
2022/04/10 07:43:21;;;;;;;1.93;1.83;;;;;;;;;;4932000;29;20257;-60
2022/04/10 07:48:33;;;;;;;2.57;2.20;;;;;;;;;;4950520;29;20212;-60
2022/04/10 07:51:01;;;;;;;1.57;1.53;;;;;;;;;;4932065;29;20232;-60
2022/04/10 07:53:29;;;;;;;2.23;2.13;;;;;;;;;;4931999;29;20237;-60
2022/04/10 07:55:57;;;;;;;2.60;2.40;;;;;;;;;;4931893;29;20294;-60
2022/04/10 07:58:25;;;;;;;3.20;1.87;;;;;;;;;;4931966;29;20252;-60
2022/04/10 08:00:53;;;;;;;2.57;2.37;;;;;;;;;;4948502;29;20214;-60
2022/04/10 08:03:20;;;;;;;2.27;2.00;;;;;;;;;;4950704;29;20219;-60
2022/04/10 08:05:47;;;;;;;2.80;1.80;;;;;;;;;;4949406;29;20342;-60
2022/04/10 08:08:14;;;;;;;2.50;2.30;;;;;;;;;;4950926;29;20215;-60
2022/04/10 08:10:41;;;;;;;2.17;1.77;;;;;;;;;;4937129;29;20223;-60
2022/04/10 08:13:08;;;;;;;2.40;2.20;;;;;;;;;;4935299;29;20215;-61
2022/04/10 08:15:36;;;;;;;3.23;2.00;;;;;;;;;;4946972;29;20246;-60
2022/04/10 08:18:04;;;;;;;2.73;1.97;;;;;;;;;;4935302;29;20204;-60
2022/04/10 08:20:31;;;;;;;3.27;2.00;;;;;;;;;;4948286;29;20670;-61
2022/04/10 08:23:00;;;;;;;3.10;1.93;;;;;;;;;;4953949;29;20652;-61
2022/04/10 08:25:27;;;;;;;4.83;1.93;;;;;;;;;;4944669;29;20240;-60
2022/04/10 08:27:54;;;;;;;1.97;1.70;;;;;;;;;;4934399;29;20286;-60
2022/04/10 08:30:22;;;;;;;1.50;1.40;;;;;;;;;;4943741;29;20238;-61
2022/04/10 08:32:50;;;;;;;2.87;1.40;;;;;;;;;;4953589;29;20224;-60
2022/04/10 08:35:18;;;;;;;1.40;1.40;;;;;;;;;;4953527;29;20215;-60
2022/04/10 08:37:45;;;;;;;1.50;1.40;;;;;;;;;;4953178;29;20653;-60
2022/04/10 08:40:13;;;;;;;1.20;1.20;;;;;;;;;;4947235;29;20237;-61
2022/04/10 08:42:40;;;;;;;2.10;1.70;;;;;;;;;;4934490;29;20223;-60
2022/04/10 08:45:08;;;;;;;3.80;2.07;;;;;;;;;;4942809;29;20229;-61
2022/04/10 08:47:35;;;;;;;2.13;1.37;;;;;;;;;;4953835;29;20217;-60
2022/04/10 08:50:03;;;;;;;1.83;1.70;;;;;;;;;;4952432;29;20223;-61
2022/04/10 08:52:31;;;;;;;1.50;1.40;;;;;;;;;;4953817;29;20269;-60
2022/04/10 08:54:58;;;;;;;1.80;1.70;;;;;;;;;;4954226;29;20746;-60
2022/04/10 08:57:25;;;;;;;1.67;1.57;;;;;;;;;;4953730;29;20249;-61
2022/04/10 08:59:52;;;;;;;1.67;1.53;;;;;;;;;;4953585;29;20222;-61
2022/04/10 09:02:19;;;;;;;1.97;1.70;;;;;;;;;;4949679;29;20247;-60
2022/04/10 09:04:46;;;;;;;1.20;1.20;;;;;;;;;;4953755;29;20284;-61
2022/04/10 09:07:14;;;;;;;1.80;1.50;;;;;;;;;;4953547;29;20229;-61
2022/04/10 09:09:42;;;;;;;2.13;1.30;;;;;;;;;;4935918;29;20223;-60
2022/04/10 09:12:10;;;;;;;1.70;1.60;;;;;;;;;;4943891;29;20228;-60
2022/04/10 09:14:38;;;;;;;1.60;1.50;;;;;;;;;;4953150;29;20847;-60
2022/04/10 09:17:12;;;;;;;1.70;1.60;;;;;;;;;;4953552;29;20223;-60
2022/04/10 09:19:40;;;;;;;2.93;1.30;;;;;;;;;;4935302;29;20207;-60
2022/04/10 09:22:24;;;;;;;2.90;1.37;;;;;;;;;;4939197;29;20281;-60
2022/04/10 09:25:08;;;;;;;3.30;1.60;;;;;;;;;;4953240;29;20305;-60
2022/04/10 09:27:36;;;;;;;1.70;1.60;;;;;;;;;;4953426;29;20293;-61
2022/04/10 09:30:04;;;;;;;1.67;1.57;;;;;;;;;;4952906;29;20243;-61
2022/04/10 09:32:37;;;;;;;1.23;1.23;;;;;;;;;;4945527;29;20299;-60
2022/04/10 09:35:05;;;;;;;1.20;1.20;;;;;;;;;;4934130;29;20318;-61
2022/04/10 09:37:42;;;;;;;2.20;1.33;;;;;;;;;;4934071;29;20286;-61
2022/04/10 09:40:29;;;;;;;4.00;1.30;;;;;;;;;;4952331;29;20863;-59
2022/04/10 09:43:00;;;;;;;2.20;1.17;;;;;;;;;;4944686;29;20267;-59
2022/04/10 09:45:27;;;;;;;2.60;1.30;;;;;;;;;;4940703;29;20299;-60
2022/04/10 09:47:54;;;;;;;1.87;1.80;;;;;;;;;;4933586;29;20245;-60
2022/04/10 09:50:30;;;;;;;1.63;1.53;;;;;;;;;;4933499;29;20220;-60
2022/04/10 09:52:59;;;;;;;0.90;0.90;;;;;;;;;;4933518;29;20246;-59
2022/04/10 09:55:36;;;;;;;1.70;1.37;;;;;;;;;;4934648;29;20406;-60
2022/04/10 09:58:04;;;;;;;1.30;1.20;;;;;;;;;;4952474;29;20215;-59
2022/04/10 10:00:31;;;;;;;2.43;1.80;;;;;;;;;;4952657;29;20211;-60
2022/04/10 10:02:59;;;;;;;0.90;0.90;;;;;;;;;;4952455;29;20207;-59
2022/04/10 10:05:26;;;;;;;2.03;0.93;;;;;;;;;;4951971;29;20207;-59
2022/04/10 10:07:53;;;;;;;2.00;0.83;;;;;;;;;;4935712;29;20238;-59
2022/04/10 10:10:22;;;;;;;0.90;0.90;;;;;;;;;;4951869;29;20219;-60
2022/04/10 10:12:50;;;;;;;1.50;1.10;;;;;;;;;;4949571;29;20210;-60
2022/04/10 10:15:17;;;;;;;0.80;0.80;;;;;;;;;;4943151;29;20226;-60
2022/04/10 10:17:45;;;;;;;0.77;0.77;;;;;;;;;;4936350;29;20617;-60
2022/04/10 10:20:12;;;;;;;1.10;1.00;;;;;;;;;;4933011;29;20621;-60
2022/04/10 10:22:39;;;;;;;1.90;1.30;;;;;;;;;;4932896;29;20816;-60
2022/04/10 10:25:09;;;;;;;0.70;0.70;;;;;;;;;;4937829;29;20227;-60
2022/04/10 10:27:51;;;;;;;3.40;0.97;;;;;;;;;;4932723;29;20215;-60
2022/04/10 10:30:21;;;;;;;1.47;1.00;;;;;;;;;;4932586;29;20254;-59
2022/04/10 10:32:49;;;;;;;0.70;0.70;;;;;;;;;;4932258;29;20219;-59
2022/04/10 10:35:28;;;;;;;2.23;0.90;;;;;;;;;;4933606;29;20204;-59
2022/04/10 10:37:55;;;;;;;0.90;0.90;;;;;;;;;;4932585;29;20219;-59
2022/04/10 10:40:26;;;;;;;0.80;0.80;;;;;;;;;;4932720;29;20242;-60
2022/04/10 10:42:59;;;;;;;2.03;1.23;;;;;;;;;;4932650;29;20224;-60
2022/04/10 10:45:33;;;;;;;2.33;1.20;;;;;;;;;;4939816;29;20208;-60
2022/04/10 10:48:15;;;;;;;1.00;1.00;;;;;;;;;;4932516;29;20331;-60
2022/04/10 10:50:42;;;;;;;1.90;1.00;;;;;;;;;;4924314;29;20698;-59
2022/04/10 10:53:09;;;;;;;1.13;1.00;;;;;;;;;;4932745;29;20222;-60
2022/04/10 10:55:44;;;;;;;1.07;1.07;;;;;;;;;;4933464;29;20234;-60
2022/04/10 10:58:15;;;;;;;1.27;1.10;;;;;;;;;;4932723;29;20298;-60
2022/04/10 11:00:46;;;;;;;1.30;1.20;;;;;;;;;;4932500;29;20641;-60
2022/04/10 11:03:14;;;;;;;1.43;1.30;;;;;;;;;;4932426;29;20211;-59
2022/04/10 11:05:41;;;;;;;1.70;1.30;;;;;;;;;;4941781;29;20211;-60
2022/04/10 11:08:09;;;;;;;1.20;1.20;;;;;;;;;;4950845;29;20666;-60
2022/04/10 11:10:38;;;;;;;1.17;1.03;;;;;;;;;;4951250;29;20215;-60
2022/04/10 11:13:05;;;;;;;2.63;1.13;;;;;;;;;;4949620;29;20226;-60
2022/04/10 11:15:34;;;;;;;1.80;0.87;;;;;;;;;;4945254;29;20225;-59
2022/04/10 11:18:20;;;;;;;2.17;1.33;;;;;;;;;;4932263;29;20337;-59
2022/04/10 11:20:54;;;;;;;0.93;0.90;;;;;;;;;;4931983;29;20604;-59
2022/04/10 11:23:21;;;;;;;2.83;1.20;;;;;;;;;;4932974;29;20298;-60
2022/04/10 11:25:50;;;;;;;2.63;1.30;;;;;;;;;;4939203;29;20281;-60
2022/04/10 11:28:17;;;;;;;1.30;1.20;;;;;;;;;;4950976;29;20294;-60
2022/04/10 11:30:47;;;;;;;1.17;1.17;;;;;;;;;;4951271;29;20269;-61
2022/04/10 11:33:15;;;;;;;1.60;1.60;;;;;;;;;;4941871;29;20235;-60
2022/04/10 11:35:43;;;;;;;2.13;2.03;;;;;;;;;;4935794;29;20674;-60
2022/04/10 11:38:12;;;;;;;1.80;1.77;;;;;;;;;;4950843;29;20631;-60
2022/04/10 11:40:40;;;;;;;2.13;1.93;;;;;;;;;;4951075;29;20207;-60
2022/04/10 11:43:09;;;;;;;1.60;1.60;;;;;;;;;;4950996;29;20220;-60
2022/04/10 11:45:36;;;;;;;2.07;2.00;;;;;;;;;;4947563;29;20246;-60
2022/04/10 11:48:06;;;;;;;2.20;2.10;;;;;;;;;;4931736;29;20211;-60
2022/04/10 11:50:34;;;;;;;1.77;1.67;;;;;;;;;;4931662;29;20713;-59
2022/04/10 11:53:02;;;;;;;1.70;1.70;;;;;;;;;;4931551;29;20247;-59
2022/04/10 11:55:30;;;;;;;1.60;1.60;;;;;;;;;;4932758;29;20204;-59
2022/04/10 11:57:57;;;;;;;2.20;1.60;;;;;;;;;;4940913;29;20262;-59
2022/04/10 12:00:24;;;;;;;1.50;1.40;;;;;;;;;;4948724;28;20203;-59
2022/04/10 12:02:52;;;;;;;2.00;1.90;;;;;;;;;;4945820;28;20674;-60
2022/04/10 12:05:21;;;;;;;2.00;1.90;;;;;;;;;;4948403;28;20597;-59
2022/04/10 12:07:48;;;;;;;2.90;2.10;;;;;;;;;;4938732;29;20266;-60
2022/04/10 12:10:19;;;;;;;1.67;1.57;;;;;;;;;;4950476;29;20211;-59
2022/04/10 12:12:46;;;;;;;2.43;2.07;;;;;;;;;;4940542;29;20318;-59
2022/04/10 12:15:18;;;;;;;1.90;1.80;;;;;;;;;;4938237;29;20215;-59
2022/04/10 12:17:46;;;;;;;2.23;2.13;;;;;;;;;;4944323;29;20207;-59
2022/04/10 12:20:13;;;;;;;2.47;2.00;;;;;;;;;;4944631;29;20207;-60
2022/04/10 12:22:42;;;;;;;2.80;2.10;;;;;;;;;;4941106;29;20360;-60
2022/04/10 12:25:11;;;;;;;4.10;1.90;;;;;;;;;;4950075;29;20231;-60
2022/04/10 12:27:39;;;;;;;3.33;1.70;;;;;;;;;;4934888;29;20270;-60
2022/04/10 12:30:09;;;;;;;2.23;2.13;;;;;;;;;;4939871;29;20250;-60
2022/04/10 12:32:36;;;;;;;4.27;2.70;;;;;;;;;;4941890;29;20227;-59
2022/04/10 12:35:13;;;;;;;2.10;2.00;;;;;;;;;;4946104;29;20212;-59
2022/04/10 12:37:46;;;;;;;2.60;2.40;;;;;;;;;;4945669;29;20211;-59
2022/04/10 12:40:14;;;;;;;2.65;2.45;;;;;;;;;;4945350;29;20448;-59
2022/04/10 12:42:42;;;;;;;2.87;2.47;;;;;;;;;;4946701;29;20207;-60
2022/04/10 12:45:10;;;;;;;2.93;2.73;;;;;;;;;;4946616;29;20226;-60
2022/04/10 12:47:40;;;;;;;2.67;2.58;;;;;;;;;;4945454;29;20225;-60
2022/04/10 12:50:08;;;;;;;1.90;1.90;;;;;;;;;;4938249;29;20619;-59
2022/04/10 12:52:35;;;;;;;3.23;2.10;;;;;;;;;;4929760;29;20231;-61
2022/04/10 12:55:04;;;;;;;2.30;2.20;;;;;;;;;;4938660;29;20919;-60
2022/04/10 12:57:31;;;;;;;2.00;1.90;;;;;;;;;;4947677;28;20290;-60
2022/04/10 12:59:58;;;;;;;2.30;2.20;;;;;;;;;;4945789;29;20666;-60
2022/04/10 13:02:26;;;;;;;3.17;2.42;;;;;;;;;;4944274;28;20223;-60
2022/04/10 13:04:54;;;;;;;1.73;1.63;;;;;;;;;;4956989;28;20724;-60
2022/04/10 13:07:21;;;;;;;2.80;1.83;;;;;;;;;;4955086;28;20207;-60
2022/04/10 13:09:50;;;;;;;1.77;1.67;;;;;;;;;;4944267;29;20281;-59
2022/04/10 13:12:25;;;;;;;2.13;1.33;;;;;;;;;;4946124;29;20254;-59
2022/04/10 13:14:53;;;;;;;1.33;1.20;;;;;;;;;;4948253;29;20206;-60
2022/04/10 13:17:20;;;;;;;1.50;1.40;;;;;;;;;;4948094;29;20223;-59
2022/04/10 13:19:47;;;;;;;1.47;1.20;;;;;;;;;;4936219;29;20310;-60
2022/04/10 13:22:14;;;;;;;1.70;1.60;;;;;;;;;;4948108;28;20264;-60
2022/04/10 13:24:41;;;;;;;1.80;1.23;;;;;;;;;;4937567;28;20208;-59
2022/04/10 13:27:09;;;;;;;1.40;1.10;;;;;;;;;;4929652;29;20215;-60
2022/04/10 13:29:38;;;;;;;0.80;0.80;;;;;;;;;;4935133;29;20342;-59
2022/04/10 13:32:05;;;;;;;0.80;0.80;;;;;;;;;;4934828;29;20340;-63
2022/04/10 13:34:34;;;;;;;0.90;0.90;;;;;;;;;;4932895;29;20216;-63
2022/04/10 13:37:02;;;;;;;0.97;0.97;;;;;;;;;;4934289;29;20691;-64
2022/04/10 13:39:29;;;;;;;1.10;1.10;;;;;;;;;;4930757;29;20299;-64
2022/04/10 13:41:56;;;;;;;1.17;1.00;;;;;;;;;;4933486;29;20213;-64
2022/04/10 13:44:24;;;;;;;0.80;0.80;;;;;;;;;;4933346;29;20199;-64
2022/04/10 13:46:52;;;;;;;0.93;0.93;;;;;;;;;;4943582;29;20219;-64
2022/04/10 13:49:19;;;;;;;1.20;1.03;;;;;;;;;;4924780;29;20224;-64
2022/04/10 13:51:46;;;;;;;0.97;0.97;;;;;;;;;;4933888;29;20235;-64
2022/04/10 13:54:13;;;;;;;1.27;1.20;;;;;;;;;;4931838;29;20203;-64
2022/04/10 13:56:40;;;;;;;1.37;1.23;;;;;;;;;;4948211;29;20269;-64
2022/04/10 13:59:07;;;;;;;1.33;1.10;;;;;;;;;;4948399;29;20601;-63
2022/04/10 14:01:35;;;;;;;1.30;1.30;;;;;;;;;;4947239;29;20223;-63
2022/04/10 14:04:04;;;;;;;1.40;1.40;;;;;;;;;;4946246;29;20207;-64
2022/04/10 14:06:31;;;;;;;2.60;1.23;;;;;;;;;;4929959;29;20615;-64
2022/04/10 14:08:58;;;;;;;1.40;1.30;;;;;;;;;;4929416;29;20215;-64
2022/04/10 14:11:25;;;;;;;2.03;1.20;;;;;;;;;;4947770;29;20223;-62
2022/04/10 14:13:52;;;;;;;1.40;1.30;;;;;;;;;;4945718;29;20696;-62
2022/04/10 14:16:26;;;;;;;2.80;1.20;;;;;;;;;;4931832;29;20225;-63
2022/04/10 14:18:53;;;;;;;0.93;0.93;;;;;;;;;;4935885;29;20219;-63
2022/04/10 14:21:21;;;;;;;1.70;1.60;;;;;;;;;;4936174;29;20223;-63
2022/04/10 14:23:48;;;;;;;0.98;0.98;;;;;;;;;;4929825;29;20226;-64
2022/04/10 14:26:15;;;;;;;1.07;1.07;;;;;;;;;;4940188;29;20231;-60
2022/04/10 14:28:42;;;;;;;2.10;1.20;;;;;;;;;;4940056;29;20239;-61
2022/04/10 14:31:09;;;;;;;2.67;1.50;;;;;;;;;;4946698;29;20221;-64
2022/04/10 14:33:36;;;;;;;1.90;1.80;;;;;;;;;;4938431;29;20291;-64
2022/04/10 14:36:04;;;;;;;1.55;1.17;;;;;;;;;;4940335;29;20262;-64
2022/04/10 14:38:32;;;;;;;1.98;1.98;;;;;;;;;;4946413;29;20211;-64
2022/04/10 14:40:59;;;;;;;3.88;2.22;;;;;;;;;;4946424;29;20300;-64
2022/04/10 14:43:26;;;;;;;6.20;3.47;;;;;;;;;;4946856;29;20685;-64
2022/04/10 14:45:53;;;;;;;1.50;1.40;;;;;;;;;;4946468;29;20215;-63
2022/04/10 14:48:20;;;;;;;0.80;0.80;;;;;;;;;;4945441;29;20246;-63
2022/04/10 14:50:50;;;;;;;1.08;1.08;;;;;;;;;;4946305;29;20685;-63
2022/04/10 14:53:17;;;;;;;0.90;0.90;;;;;;;;;;4940967;29;20226;-62